createdAt,value
2023-04-22T00:00:34.166Z,0.00
2023-04-22T00:01:33.911Z,0.00
2023-04-22T00:02:35.088Z,0.00
2023-04-22T00:03:34.295Z,0.00
2023-04-22T00:04:34.452Z,0.00
2023-04-22T00:05:33.875Z,0.00
2023-04-22T00:06:33.779Z,0.00
2023-04-22T00:07:33.752Z,0.00
2023-04-22T00:08:33.927Z,0.00
2023-04-22T00:09:33.752Z,0.00
2023-04-22T00:10:33.726Z,0.00
2023-04-22T00:11:33.745Z,0.00
2023-04-22T00:12:33.717Z,0.00
2023-04-22T00:13:33.690Z,0.00
2023-04-22T00:14:33.689Z,0.00
2023-04-22T00:15:33.687Z,0.00
2023-04-22T00:16:33.720Z,0.00
2023-04-22T00:17:33.745Z,0.00
2023-04-22T00:18:33.638Z,0.00
2023-04-22T00:19:33.630Z,0.00
2023-04-22T00:20:33.623Z,0.00
2023-04-22T00:21:33.633Z,0.00
2023-04-22T00:22:33.618Z,0.00
2023-04-22T00:23:33.604Z,0.00
2023-04-22T00:24:33.580Z,0.00
2023-04-22T00:25:33.601Z,0.00
2023-04-22T00:26:33.565Z,0.00
2023-04-22T00:27:33.544Z,0.00
2023-04-22T00:28:33.545Z,0.00
2023-04-22T00:29:33.516Z,0.00
2023-04-22T00:30:33.500Z,0.00
2023-04-22T00:31:33.568Z,0.00
2023-04-22T00:32:33.537Z,0.00
2023-04-22T00:33:33.479Z,0.00
2023-04-22T00:34:33.452Z,0.00
2023-04-22T00:35:33.469Z,0.00
2023-04-22T00:36:33.464Z,0.00
2023-04-22T00:37:33.432Z,0.00
2023-04-22T00:38:33.425Z,0.00
2023-04-22T00:39:33.430Z,0.00
2023-04-22T00:40:33.442Z,0.00
2023-04-22T00:41:33.384Z,0.00
2023-04-22T00:42:33.396Z,0.00
2023-04-22T00:43:33.376Z,0.00
2023-04-22T00:44:33.344Z,0.00
2023-04-22T00:45:33.389Z,0.00
2023-04-22T00:46:33.382Z,0.00
2023-04-22T00:47:33.392Z,0.00
2023-04-22T00:48:33.324Z,0.00
2023-04-22T00:49:33.303Z,0.00
2023-04-22T00:50:33.292Z,0.00
2023-04-22T00:51:33.280Z,0.00
2023-04-22T00:52:33.273Z,0.00
2023-04-22T00:53:33.257Z,0.00
2023-04-22T00:54:33.280Z,0.00
2023-04-22T00:55:33.255Z,0.00
2023-04-22T00:56:33.219Z,0.00
2023-04-22T00:57:33.195Z,0.00
2023-04-22T00:58:33.242Z,0.00
2023-04-22T00:59:33.204Z,0.00
2023-04-22T01:00:33.172Z,0.00
2023-04-22T01:01:33.171Z,0.00
2023-04-22T01:02:33.231Z,0.00
2023-04-22T01:03:33.355Z,0.00
2023-04-22T01:04:33.322Z,0.00
2023-04-22T01:05:33.145Z,0.00
2023-04-22T01:06:33.141Z,0.00
2023-04-22T01:07:33.106Z,0.00
2023-04-22T01:08:33.121Z,0.00
2023-04-22T01:09:33.070Z,0.00
2023-04-22T01:10:33.070Z,0.00
2023-04-22T01:11:33.052Z,0.00
2023-04-22T01:12:33.038Z,0.00
2023-04-22T01:13:33.038Z,0.00
2023-04-22T01:14:33.041Z,0.00
2023-04-22T01:15:33.026Z,0.00
2023-04-22T01:16:33.034Z,0.00
2023-04-22T01:17:33.007Z,0.00
2023-04-22T01:18:32.974Z,0.00
2023-04-22T01:19:32.985Z,0.00
2023-04-22T01:20:32.958Z,0.00
2023-04-22T01:21:32.965Z,0.00
2023-04-22T01:22:32.941Z,0.00
2023-04-22T01:23:32.924Z,0.00
2023-04-22T01:24:32.919Z,0.00
2023-04-22T01:25:32.928Z,0.00
2023-04-22T01:26:32.902Z,0.00
2023-04-22T01:27:32.884Z,0.00
2023-04-22T01:28:32.869Z,0.00
2023-04-22T01:29:32.865Z,0.00
2023-04-22T01:30:32.860Z,0.00
2023-04-22T01:31:32.979Z,0.00
2023-04-22T01:32:32.870Z,0.00
2023-04-22T01:33:32.814Z,0.00
2023-04-22T01:34:32.791Z,0.00
2023-04-22T01:35:32.804Z,0.00
2023-04-22T01:36:32.789Z,0.00
2023-04-22T01:37:32.771Z,0.00
2023-04-22T01:38:32.775Z,0.00
2023-04-22T01:39:32.739Z,0.00
2023-04-22T01:40:32.757Z,0.00
2023-04-22T01:41:32.769Z,0.00
2023-04-22T01:42:32.724Z,0.00
2023-04-22T01:43:32.735Z,0.00
2023-04-22T01:44:32.696Z,0.00
2023-04-22T01:45:32.717Z,0.00
2023-04-22T01:46:32.719Z,0.00
2023-04-22T01:47:32.679Z,0.00
2023-04-22T01:48:32.688Z,0.00
2023-04-22T01:49:32.644Z,0.00
2023-04-22T01:50:32.650Z,0.00
2023-04-22T01:51:32.631Z,0.00
2023-04-22T01:52:32.623Z,0.00
2023-04-22T01:53:32.615Z,0.00
2023-04-22T01:54:32.599Z,0.00
2023-04-22T01:55:32.563Z,0.00
2023-04-22T01:56:32.566Z,0.00
2023-04-22T01:57:32.556Z,0.00
2023-04-22T01:58:32.563Z,0.00
2023-04-22T01:59:32.531Z,0.00
2023-04-22T02:00:32.557Z,0.00
2023-04-22T02:01:32.583Z,0.00
2023-04-22T02:02:32.582Z,0.00
2023-04-22T02:03:32.658Z,0.00
2023-04-22T02:04:32.504Z,0.00
2023-04-22T02:05:32.464Z,0.00
2023-04-22T02:06:32.499Z,0.00
2023-04-22T02:07:32.436Z,0.00
2023-04-22T02:08:32.431Z,0.00
2023-04-22T02:09:32.423Z,0.00
2023-04-22T02:10:32.394Z,0.00
2023-04-22T02:11:32.454Z,0.00
2023-04-22T02:12:32.395Z,0.00
2023-04-22T02:13:32.372Z,0.00
2023-04-22T02:14:32.379Z,0.00
2023-04-22T02:15:32.427Z,0.00
2023-04-22T02:16:32.444Z,0.00
2023-04-22T02:17:32.333Z,0.00
2023-04-22T02:18:32.327Z,0.00
2023-04-22T02:19:32.329Z,0.00
2023-04-22T02:20:32.310Z,0.00
2023-04-22T02:21:32.317Z,0.00
2023-04-22T02:22:32.289Z,0.00
2023-04-22T02:23:32.259Z,0.00
2023-04-22T02:24:32.276Z,0.00
2023-04-22T02:25:32.245Z,0.00
2023-04-22T02:26:32.236Z,0.00
2023-04-22T02:27:32.211Z,0.00
2023-04-22T02:28:32.209Z,0.00
2023-04-22T02:29:32.227Z,0.00
2023-04-22T02:30:32.193Z,0.00
2023-04-22T02:31:32.212Z,0.00
2023-04-22T02:32:32.247Z,0.00
2023-04-22T02:33:32.152Z,0.00
2023-04-22T02:34:32.150Z,0.00
2023-04-22T02:35:32.107Z,0.00
2023-04-22T02:36:32.141Z,0.00
2023-04-22T02:37:32.099Z,0.00
2023-04-22T02:38:32.102Z,0.00
2023-04-22T02:39:32.083Z,0.00
2023-04-22T02:40:32.097Z,0.00
2023-04-22T02:41:32.063Z,0.00
2023-04-22T02:42:32.081Z,0.00
2023-04-22T02:43:32.041Z,0.00
2023-04-22T02:44:32.061Z,0.00
2023-04-22T02:45:32.037Z,0.00
2023-04-22T02:46:32.052Z,0.00
2023-04-22T02:47:32.050Z,0.00
2023-04-22T02:48:31.994Z,0.00
2023-04-22T02:49:31.980Z,0.00
2023-04-22T02:50:31.962Z,0.00
2023-04-22T02:51:31.961Z,0.00
2023-04-22T02:52:31.934Z,0.00
2023-04-22T02:53:31.922Z,0.00
2023-04-22T02:54:31.936Z,0.00
2023-04-22T02:55:31.914Z,0.00
2023-04-22T02:56:31.925Z,0.00
2023-04-22T02:57:31.882Z,0.00
2023-04-22T02:58:31.879Z,0.00
2023-04-22T02:59:31.900Z,0.00
2023-04-22T03:00:31.922Z,0.00
2023-04-22T03:01:31.877Z,0.00
2023-04-22T03:02:32.052Z,0.00
2023-04-22T03:03:32.025Z,0.00
2023-04-22T03:04:31.854Z,0.00
2023-04-22T03:05:31.784Z,0.00
2023-04-22T03:06:31.800Z,0.00
2023-04-22T03:07:31.755Z,0.00
2023-04-22T03:08:31.816Z,0.00
2023-04-22T03:09:31.762Z,0.00
2023-04-22T03:10:31.753Z,0.00
2023-04-22T03:11:31.734Z,0.00
2023-04-22T03:12:31.724Z,0.00
2023-04-22T03:13:31.692Z,0.00
2023-04-22T03:14:31.726Z,0.00
2023-04-22T03:15:31.690Z,0.00
2023-04-22T03:16:31.721Z,0.00
2023-04-22T03:17:31.736Z,0.00
2023-04-22T03:18:31.660Z,0.00
2023-04-22T03:19:31.679Z,0.00
2023-04-22T03:20:31.647Z,0.00
2023-04-22T03:21:31.632Z,0.00
2023-04-22T03:22:31.642Z,0.00
2023-04-22T03:23:31.613Z,0.00
2023-04-22T03:24:31.595Z,0.00
2023-04-22T03:25:31.585Z,0.00
2023-04-22T03:26:31.578Z,0.00
2023-04-22T03:27:31.556Z,0.00
2023-04-22T03:28:31.570Z,0.00
2023-04-22T03:29:31.538Z,0.00
2023-04-22T03:30:31.541Z,0.00
2023-04-22T03:31:31.582Z,0.00
2023-04-22T03:32:31.560Z,0.00
2023-04-22T03:33:31.523Z,0.00
2023-04-22T03:34:31.471Z,0.00
2023-04-22T03:35:31.463Z,0.00
2023-04-22T03:36:31.454Z,0.00
2023-04-22T03:37:31.441Z,0.00
2023-04-22T03:38:31.446Z,0.00
2023-04-22T03:39:31.445Z,0.00
2023-04-22T03:40:31.417Z,0.00
2023-04-22T03:41:31.416Z,0.00
2023-04-22T03:42:31.394Z,0.00
2023-04-22T03:43:31.408Z,0.00
2023-04-22T03:44:31.361Z,0.00
2023-04-22T03:45:31.399Z,0.00
2023-04-22T03:46:31.477Z,0.00
2023-04-22T03:47:31.391Z,0.00
2023-04-22T03:48:31.329Z,0.00
2023-04-22T03:49:31.317Z,0.00
2023-04-22T03:50:31.307Z,0.00
2023-04-22T03:51:31.291Z,0.00
2023-04-22T03:52:31.315Z,0.00
2023-04-22T03:53:31.292Z,0.00
2023-04-22T03:54:31.243Z,0.00
2023-04-22T03:55:31.279Z,0.00
2023-04-22T03:56:31.255Z,0.00
2023-04-22T03:57:31.223Z,0.00
2023-04-22T03:58:31.202Z,4.00
2023-04-22T03:59:31.300Z,4.00
2023-04-22T04:00:31.194Z,4.00
2023-04-22T04:01:31.237Z,0.00
2023-04-22T04:02:31.381Z,4.00
2023-04-22T04:03:31.541Z,4.00
2023-04-22T04:04:31.386Z,4.00
2023-04-22T04:05:31.222Z,8.00
2023-04-22T04:06:31.134Z,8.00
2023-04-22T04:07:31.118Z,12.00
2023-04-22T04:08:31.104Z,12.00
2023-04-22T04:09:31.098Z,16.00
2023-04-22T04:10:31.085Z,16.00
2023-04-22T04:11:31.085Z,24.00
2023-04-22T04:12:31.071Z,24.00
2023-04-22T04:13:31.048Z,28.00
2023-04-22T04:14:31.015Z,36.00
2023-04-22T04:15:31.019Z,40.00
2023-04-22T04:16:31.099Z,44.00
2023-04-22T04:17:31.020Z,52.00
2023-04-22T04:18:30.989Z,56.00
2023-04-22T04:19:30.984Z,64.00
2023-04-22T04:20:30.984Z,68.00
2023-04-22T04:21:30.956Z,76.00
2023-04-22T04:22:30.944Z,84.00
2023-04-22T04:23:30.949Z,92.00
2023-04-22T04:24:30.932Z,100.00
2023-04-22T04:25:30.923Z,112.00
2023-04-22T04:26:30.906Z,124.00
2023-04-22T04:27:30.923Z,136.00
2023-04-22T04:28:30.864Z,144.00
2023-04-22T04:29:30.892Z,164.00
2023-04-22T04:30:32.986Z,176.00
2023-04-22T04:31:30.878Z,196.00
2023-04-22T04:32:30.839Z,212.00
2023-04-22T04:33:30.837Z,228.00
2023-04-22T04:34:30.802Z,244.00
2023-04-22T04:35:30.826Z,268.00
2023-04-22T04:36:30.849Z,296.00
2023-04-22T04:37:30.796Z,324.00
2023-04-22T04:38:30.855Z,344.00
2023-04-22T04:39:30.744Z,368.00
2023-04-22T04:40:30.791Z,388.00
2023-04-22T04:41:30.736Z,420.00
2023-04-22T04:42:30.726Z,444.00
2023-04-22T04:43:30.775Z,460.00
2023-04-22T04:44:30.714Z,468.00
2023-04-22T04:45:30.709Z,480.00
2023-04-22T04:46:30.709Z,488.00
2023-04-22T04:47:30.809Z,504.00
2023-04-22T04:48:30.677Z,516.00
2023-04-22T04:49:30.671Z,532.00
2023-04-22T04:50:30.625Z,548.00
2023-04-22T04:51:30.613Z,584.00
2023-04-22T04:52:30.605Z,608.00
2023-04-22T04:53:30.635Z,640.00
2023-04-22T04:54:30.618Z,688.00
2023-04-22T04:55:30.594Z,752.00
2023-04-22T04:56:30.576Z,796.00
2023-04-22T04:57:30.558Z,828.00
2023-04-22T04:58:30.559Z,856.00
2023-04-22T04:59:30.523Z,892.00
2023-04-22T05:00:30.552Z,912.00
2023-04-22T05:01:30.514Z,924.00
2023-04-22T05:02:30.632Z,908.00
2023-04-22T05:03:30.602Z,876.00
2023-04-22T05:04:30.708Z,876.00
2023-04-22T05:05:30.490Z,904.00
2023-04-22T05:06:30.489Z,932.00
2023-04-22T05:07:30.474Z,956.00
2023-04-22T05:08:30.451Z,980.00
2023-04-22T05:09:30.427Z,1000.00
2023-04-22T05:10:30.436Z,1020.00
2023-04-22T05:11:30.423Z,1056.00
2023-04-22T05:12:30.450Z,1088.00
2023-04-22T05:13:30.428Z,1116.00
2023-04-22T05:14:30.375Z,1144.00
2023-04-22T05:15:30.362Z,1172.00
2023-04-22T05:16:30.536Z,1204.00
2023-04-22T05:17:30.381Z,1232.00
2023-04-22T05:18:30.331Z,1260.00
2023-04-22T05:19:30.348Z,1284.00
2023-04-22T05:20:30.315Z,1312.00
2023-04-22T05:21:30.288Z,1324.00
2023-04-22T05:22:30.283Z,1336.00
2023-04-22T05:23:30.285Z,1344.00
2023-04-22T05:24:30.282Z,1344.00
2023-04-22T05:25:30.267Z,1352.00
2023-04-22T05:26:30.239Z,1352.00
2023-04-22T05:27:30.246Z,1368.00
2023-04-22T05:28:30.221Z,1384.00
2023-04-22T05:29:30.201Z,1396.00
2023-04-22T05:30:30.195Z,1416.00
2023-04-22T05:31:30.205Z,1444.00
2023-04-22T05:32:30.182Z,1472.00
2023-04-22T05:33:30.170Z,1500.00
2023-04-22T05:34:30.179Z,1540.00
2023-04-22T05:35:30.154Z,1580.00
2023-04-22T05:36:31.605Z,1624.00
2023-04-22T05:37:30.136Z,1672.00
2023-04-22T05:38:30.127Z,1716.00
2023-04-22T05:39:30.118Z,1760.00
2023-04-22T05:40:30.100Z,1800.00
2023-04-22T05:41:30.087Z,1828.00
2023-04-22T05:42:30.063Z,1828.00
2023-04-22T05:43:30.068Z,1812.00
2023-04-22T05:44:30.045Z,1788.00
2023-04-22T05:45:30.040Z,1756.00
2023-04-22T05:46:30.143Z,1732.00
2023-04-22T05:47:30.040Z,1708.00
2023-04-22T05:48:30.020Z,1684.00
2023-04-22T05:49:29.990Z,1656.00
2023-04-22T05:50:29.987Z,1636.00
2023-04-22T05:51:29.972Z,1620.00
2023-04-22T05:52:29.952Z,1612.00
2023-04-22T05:53:29.948Z,1608.00
2023-04-22T05:54:29.919Z,1604.00
2023-04-22T05:55:29.943Z,1604.00
2023-04-22T05:56:29.911Z,1596.00
2023-04-22T05:57:29.918Z,1584.00
2023-04-22T05:58:29.878Z,1580.00
2023-04-22T05:59:29.927Z,1584.00
2023-04-22T06:00:29.966Z,1588.00
2023-04-22T06:01:29.882Z,1596.00
2023-04-22T06:02:29.967Z,1600.00
2023-04-22T06:03:30.009Z,1612.00
2023-04-22T06:04:30.085Z,1628.00
2023-04-22T06:05:29.847Z,1644.00
2023-04-22T06:06:29.825Z,1660.00
2023-04-22T06:07:29.787Z,1680.00
2023-04-22T06:08:29.779Z,1704.00
2023-04-22T06:09:29.782Z,1724.00
2023-04-22T06:10:29.805Z,1748.00
2023-04-22T06:11:29.765Z,1756.00
2023-04-22T06:12:29.727Z,1772.00
2023-04-22T06:13:29.737Z,1792.00
2023-04-22T06:14:29.730Z,1816.00
2023-04-22T06:15:29.749Z,1836.00
2023-04-22T06:16:29.708Z,1832.00
2023-04-22T06:17:29.701Z,1824.00
2023-04-22T06:18:29.710Z,1800.00
2023-04-22T06:19:29.668Z,1776.00
2023-04-22T06:20:29.702Z,1776.00
2023-04-22T06:21:29.626Z,1764.00
2023-04-22T06:22:29.648Z,1756.00
2023-04-22T06:23:29.601Z,1760.00
2023-04-22T06:24:29.626Z,1768.00
2023-04-22T06:25:29.604Z,1776.00
2023-04-22T06:26:29.566Z,1796.00
2023-04-22T06:27:29.561Z,1796.00
2023-04-22T06:28:29.564Z,1776.00
2023-04-22T06:29:29.553Z,1760.00
2023-04-22T06:30:29.555Z,1752.00
2023-04-22T06:31:29.625Z,1744.00
2023-04-22T06:32:29.524Z,1728.00
2023-04-22T06:33:29.507Z,1716.00
2023-04-22T06:34:29.478Z,1708.00
2023-04-22T06:35:29.477Z,1696.00
2023-04-22T06:36:30.774Z,1688.00
2023-04-22T06:37:29.496Z,1684.00
2023-04-22T06:38:29.459Z,1684.00
2023-04-22T06:39:29.440Z,1676.00
2023-04-22T06:40:29.441Z,1676.00
2023-04-22T06:41:29.434Z,1680.00
2023-04-22T06:42:29.401Z,1696.00
2023-04-22T06:43:29.453Z,1708.00
2023-04-22T06:44:29.381Z,1720.00
2023-04-22T06:45:29.403Z,1732.00
2023-04-22T06:46:29.367Z,1736.00
2023-04-22T06:47:29.356Z,1752.00
2023-04-22T06:48:29.340Z,1772.00
2023-04-22T06:49:29.326Z,1776.00
2023-04-22T06:50:29.299Z,1796.00
2023-04-22T06:51:29.297Z,1844.00
2023-04-22T06:52:29.298Z,1868.00
2023-04-22T06:53:29.285Z,1892.00
2023-04-22T06:54:29.267Z,1908.00
2023-04-22T06:55:29.264Z,1920.00
2023-04-22T06:56:29.245Z,1936.00
2023-04-22T06:57:29.236Z,1956.00
2023-04-22T06:58:29.221Z,1972.00
2023-04-22T06:59:29.221Z,1996.00
2023-04-22T07:00:29.201Z,2016.00
2023-04-22T07:01:29.236Z,2036.00
2023-04-22T07:02:29.259Z,2060.00
2023-04-22T07:03:29.401Z,2076.00
2023-04-22T07:04:29.204Z,2104.00
2023-04-22T07:05:29.157Z,2132.00
2023-04-22T07:06:29.188Z,2160.00
2023-04-22T07:07:29.148Z,2192.00
2023-04-22T07:08:29.118Z,2232.00
2023-04-22T07:09:29.118Z,2276.00
2023-04-22T07:10:29.096Z,2320.00
2023-04-22T07:11:29.064Z,2368.00
2023-04-22T07:12:29.060Z,2420.00
2023-04-22T07:13:29.069Z,2476.00
2023-04-22T07:14:29.062Z,2540.00
2023-04-22T07:15:29.028Z,2608.00
2023-04-22T07:16:29.070Z,2668.00
2023-04-22T07:17:29.037Z,2724.00
2023-04-22T07:18:28.997Z,2784.00
2023-04-22T07:19:28.997Z,2844.00
2023-04-22T07:20:28.973Z,2904.00
2023-04-22T07:21:28.994Z,2956.00
2023-04-22T07:22:28.992Z,3008.00
2023-04-22T07:23:28.946Z,3052.00
2023-04-22T07:24:28.935Z,3088.00
2023-04-22T07:25:28.947Z,3120.00
2023-04-22T07:26:28.932Z,3140.00
2023-04-22T07:27:28.904Z,3172.00
2023-04-22T07:28:28.891Z,3216.00
2023-04-22T07:29:28.898Z,3272.00
2023-04-22T07:30:28.852Z,3344.00
2023-04-22T07:31:28.897Z,3384.00
2023-04-22T07:32:28.848Z,3380.00
2023-04-22T07:33:28.843Z,3352.00
2023-04-22T07:34:28.838Z,3304.00
2023-04-22T07:35:28.806Z,3256.00
2023-04-22T07:36:28.800Z,3208.00
2023-04-22T07:37:28.797Z,3168.00
2023-04-22T07:38:28.781Z,3120.00
2023-04-22T07:39:28.755Z,3072.00
2023-04-22T07:40:28.762Z,3012.00
2023-04-22T07:41:28.738Z,2944.00
2023-04-22T07:42:28.743Z,2892.00
2023-04-22T07:43:28.727Z,2836.00
2023-04-22T07:44:28.717Z,2792.00
2023-04-22T07:45:28.733Z,2748.00
2023-04-22T07:46:28.712Z,2720.00
2023-04-22T07:47:28.694Z,2680.00
2023-04-22T07:48:28.659Z,2640.00
2023-04-22T07:49:28.650Z,2616.00
2023-04-22T07:50:28.639Z,2612.00
2023-04-22T07:51:28.630Z,2632.00
2023-04-22T07:52:28.603Z,2624.00
2023-04-22T07:53:28.620Z,2624.00
2023-04-22T07:54:28.594Z,2628.00
2023-04-22T07:55:28.575Z,2632.00
2023-04-22T07:56:28.584Z,2640.00
2023-04-22T07:57:28.568Z,2644.00
2023-04-22T07:58:28.564Z,2660.00
2023-04-22T07:59:28.571Z,2696.00
2023-04-22T08:00:28.556Z,2736.00
2023-04-22T08:01:28.555Z,2752.00
2023-04-22T08:02:28.556Z,2820.00
2023-04-22T08:03:28.669Z,2872.00
2023-04-22T08:04:28.689Z,2920.00
2023-04-22T08:05:28.515Z,2944.00
2023-04-22T08:06:28.485Z,3036.00
2023-04-22T08:07:33.163Z,3076.00
2023-04-22T08:08:28.454Z,3140.00
2023-04-22T08:09:28.442Z,3224.00
2023-04-22T08:10:28.435Z,3304.00
2023-04-22T08:11:28.417Z,3376.00
2023-04-22T08:12:28.418Z,3428.00
2023-04-22T08:13:28.378Z,3484.00
2023-04-22T08:14:28.393Z,3540.00
2023-04-22T08:15:28.371Z,3596.00
2023-04-22T08:16:28.435Z,3620.00
2023-04-22T08:17:28.450Z,3740.00
2023-04-22T08:18:28.320Z,3772.00
2023-04-22T08:19:28.323Z,3764.00
2023-04-22T08:20:28.324Z,3876.00
2023-04-22T08:21:28.299Z,3904.00
2023-04-22T08:22:28.307Z,3964.00
2023-04-22T08:23:28.291Z,3992.00
2023-04-22T08:24:28.313Z,4020.00
2023-04-22T08:25:28.263Z,4044.00
2023-04-22T08:26:28.247Z,4068.00
2023-04-22T08:27:28.241Z,4084.00
2023-04-22T08:28:28.268Z,4088.00
2023-04-22T08:29:28.227Z,4104.00
2023-04-22T08:30:28.209Z,4128.00
2023-04-22T08:31:28.254Z,4144.00
2023-04-22T08:32:28.249Z,4172.00
2023-04-22T08:33:28.180Z,4200.00
2023-04-22T08:34:28.150Z,4228.00
2023-04-22T08:35:28.138Z,4260.00
2023-04-22T08:36:28.143Z,4304.00
2023-04-22T08:37:28.147Z,4340.00
2023-04-22T08:38:28.116Z,4372.00
2023-04-22T08:39:28.127Z,4384.00
2023-04-22T08:40:28.091Z,4392.00
2023-04-22T08:41:28.073Z,4384.00
2023-04-22T08:42:28.086Z,4364.00
2023-04-22T08:43:28.044Z,4352.00
2023-04-22T08:44:28.039Z,4344.00
2023-04-22T08:45:28.065Z,4352.00
2023-04-22T08:46:28.054Z,4328.00
2023-04-22T08:47:28.023Z,4308.00
2023-04-22T08:48:28.023Z,4300.00
2023-04-22T08:49:27.991Z,4316.00
2023-04-22T08:50:27.999Z,4336.00
2023-04-22T08:51:27.972Z,4340.00
2023-04-22T08:52:27.960Z,4356.00
2023-04-22T08:53:27.965Z,4376.00
2023-04-22T08:54:27.935Z,4368.00
2023-04-22T08:55:27.907Z,4324.00
2023-04-22T08:56:27.919Z,4324.00
2023-04-22T08:57:27.901Z,4348.00
2023-04-22T08:58:27.875Z,4376.00
2023-04-22T08:59:27.896Z,4400.00
2023-04-22T09:00:27.863Z,4404.00
2023-04-22T09:01:27.893Z,4408.00
2023-04-22T09:02:27.890Z,4400.00
2023-04-22T09:03:27.954Z,4416.00
2023-04-22T09:04:27.877Z,4412.00
2023-04-22T09:05:28.104Z,4408.00
2023-04-22T09:06:27.802Z,4416.00
2023-04-22T09:07:27.788Z,4428.00
2023-04-22T09:08:27.779Z,4428.00
2023-04-22T09:09:27.774Z,4424.00
2023-04-22T09:10:27.758Z,4396.00
2023-04-22T09:11:27.742Z,4484.00
2023-04-22T09:12:27.751Z,4568.00
2023-04-22T09:13:27.817Z,4688.00
2023-04-22T09:14:27.742Z,4648.00
2023-04-22T09:15:27.698Z,4780.00
2023-04-22T09:16:27.725Z,4720.00
2023-04-22T09:17:27.680Z,4676.00
2023-04-22T09:18:27.653Z,4844.00
2023-04-22T09:19:27.656Z,5000.00
2023-04-22T09:20:27.673Z,5132.00
2023-04-22T09:21:27.621Z,5144.00
2023-04-22T09:22:27.608Z,5108.00
2023-04-22T09:23:27.608Z,5068.00
2023-04-22T09:24:27.598Z,5112.00
2023-04-22T09:25:27.579Z,5236.00
2023-04-22T09:26:27.580Z,5480.00
2023-04-22T09:27:27.570Z,5720.00
2023-04-22T09:28:27.575Z,5920.00
2023-04-22T09:29:27.543Z,6056.00
2023-04-22T09:30:27.562Z,6120.00
2023-04-22T09:31:27.630Z,6216.00
2023-04-22T09:32:27.532Z,6336.00
2023-04-22T09:33:27.490Z,6464.00
2023-04-22T09:34:27.497Z,6624.00
2023-04-22T09:35:27.483Z,6816.00
2023-04-22T09:36:27.501Z,7260.00
2023-04-22T09:37:33.307Z,7724.00
2023-04-22T09:38:27.433Z,8044.00
2023-04-22T09:39:27.427Z,8108.00
2023-04-22T09:40:27.437Z,8108.00
2023-04-22T09:41:27.433Z,8300.00
2023-04-22T09:42:27.392Z,8552.00
2023-04-22T09:43:27.410Z,8724.00
2023-04-22T09:44:27.378Z,8816.00
2023-04-22T09:45:27.374Z,8720.00
2023-04-22T09:46:27.422Z,8564.00
2023-04-22T09:47:27.355Z,8436.00
2023-04-22T09:48:27.334Z,8308.00
2023-04-22T09:49:27.347Z,8192.00
2023-04-22T09:50:27.329Z,8108.00
2023-04-22T09:51:27.311Z,7988.00
2023-04-22T09:52:27.285Z,7900.00
2023-04-22T09:53:27.269Z,7804.00
2023-04-22T09:54:27.268Z,7736.00
2023-04-22T09:55:27.255Z,7684.00
2023-04-22T09:56:27.243Z,7644.00
2023-04-22T09:57:27.219Z,7640.00
2023-04-22T09:58:27.245Z,7668.00
2023-04-22T09:59:27.206Z,7728.00
2023-04-22T10:00:27.194Z,7816.00
2023-04-22T10:01:27.204Z,7916.00
2023-04-22T10:02:27.283Z,8016.00
2023-04-22T10:03:27.214Z,8168.00
2023-04-22T10:04:27.201Z,8384.00
2023-04-22T10:05:27.153Z,8680.00
2023-04-22T10:06:27.152Z,9052.00
2023-04-22T10:07:27.118Z,9480.00
2023-04-22T10:08:27.105Z,9936.00
2023-04-22T10:09:27.105Z,10376.00
2023-04-22T10:10:27.115Z,10780.00
2023-04-22T10:11:27.061Z,11228.00
2023-04-22T10:12:35.263Z,11628.00
2023-04-22T10:13:27.044Z,12012.00
2023-04-22T10:14:27.059Z,12324.00
2023-04-22T10:15:27.195Z,12576.00
2023-04-22T10:16:27.065Z,12784.00
2023-04-22T10:17:27.040Z,13076.00
2023-04-22T10:18:27.000Z,13312.00
2023-04-22T10:19:27.015Z,13344.00
2023-04-22T10:20:27.009Z,13172.00
2023-04-22T10:21:26.962Z,12972.00
2023-04-22T10:22:26.958Z,12708.00
2023-04-22T10:23:26.952Z,12476.00
2023-04-22T10:24:26.951Z,12316.00
2023-04-22T10:25:26.919Z,12156.00
2023-04-22T10:26:26.914Z,12096.00
2023-04-22T10:27:26.892Z,12112.00
2023-04-22T10:28:26.889Z,12196.00
2023-04-22T10:29:26.902Z,12244.00
2023-04-22T10:30:26.898Z,12272.00
2023-04-22T10:31:26.948Z,12352.00
2023-04-22T10:32:26.885Z,12460.00
2023-04-22T10:33:26.842Z,12552.00
2023-04-22T10:34:26.829Z,12604.00
2023-04-22T10:35:26.804Z,12664.00
2023-04-22T10:36:26.794Z,12820.00
2023-04-22T10:37:26.790Z,13088.00
2023-04-22T10:38:26.786Z,13348.00
2023-04-22T10:39:26.758Z,13456.00
2023-04-22T10:40:26.753Z,13592.00
2023-04-22T10:41:26.735Z,13584.00
2023-04-22T10:42:26.732Z,13652.00
2023-04-22T10:43:26.717Z,13692.00
2023-04-22T10:44:26.713Z,13680.00
2023-04-22T10:45:26.706Z,13700.00
2023-04-22T10:46:26.768Z,13608.00
2023-04-22T10:47:26.718Z,13520.00
2023-04-22T10:48:26.673Z,13160.00
2023-04-22T10:49:26.672Z,12792.00
2023-04-22T10:50:26.693Z,12376.00
2023-04-22T10:51:26.628Z,11944.00
2023-04-22T10:52:26.640Z,11552.00
2023-04-22T10:53:26.648Z,11076.00
2023-04-22T10:54:28.777Z,10748.00
2023-04-22T10:55:26.604Z,10572.00
2023-04-22T10:56:26.586Z,10436.00
2023-04-22T10:57:26.598Z,10436.00
2023-04-22T10:58:26.568Z,10652.00
2023-04-22T10:59:26.573Z,10980.00
2023-04-22T11:00:29.415Z,11284.00
2023-04-22T11:01:26.582Z,11344.00
2023-04-22T11:02:26.673Z,11320.00
2023-04-22T11:03:26.703Z,11412.00
2023-04-22T11:04:26.539Z,11728.00
2023-04-22T11:05:26.481Z,12340.00
2023-04-22T11:06:26.487Z,13072.00
2023-04-22T11:07:26.504Z,13584.00
2023-04-22T11:08:26.448Z,13528.00
2023-04-22T11:09:26.436Z,13748.00
2023-04-22T11:10:26.415Z,14524.00
2023-04-22T11:11:26.411Z,15268.00
2023-04-22T11:12:26.398Z,14780.00
2023-04-22T11:13:26.389Z,14548.00
2023-04-22T11:14:26.398Z,15084.00
2023-04-22T11:15:26.379Z,15144.00
2023-04-22T11:16:26.373Z,14300.00
2023-04-22T11:17:26.364Z,14032.00
2023-04-22T11:18:26.361Z,13888.00
2023-04-22T11:19:26.325Z,13080.00
2023-04-22T11:20:26.309Z,12740.00
2023-04-22T11:21:26.328Z,13604.00
2023-04-22T11:22:26.285Z,14184.00
2023-04-22T11:23:26.286Z,15144.00
2023-04-22T11:24:26.296Z,15768.00
2023-04-22T11:25:26.265Z,15928.00
2023-04-22T11:26:26.269Z,15012.00
2023-04-22T11:27:26.253Z,14168.00
2023-04-22T11:28:26.262Z,14040.00
2023-04-22T11:29:26.215Z,13996.00
2023-04-22T11:30:26.209Z,13604.00
2023-04-22T11:31:26.202Z,13200.00
2023-04-22T11:32:26.378Z,12856.00
2023-04-22T11:33:26.181Z,13136.00
2023-04-22T11:34:26.155Z,13704.00
2023-04-22T11:35:26.183Z,14284.00
2023-04-22T11:36:26.165Z,14892.00
2023-04-22T11:37:26.119Z,15540.00
2023-04-22T11:38:26.367Z,15620.00
2023-04-22T11:39:26.102Z,14432.00
2023-04-22T11:40:30.562Z,13184.00
2023-04-22T11:41:26.098Z,12744.00
2023-04-22T11:42:26.100Z,12968.00
2023-04-22T11:43:26.066Z,13648.00
2023-04-22T11:44:26.090Z,14480.00
2023-04-22T11:45:26.060Z,15088.00
2023-04-22T11:46:26.123Z,15432.00
2023-04-22T11:47:26.037Z,15588.00
2023-04-22T11:48:26.013Z,15744.00
2023-04-22T11:49:26.006Z,15692.00
2023-04-22T11:50:26.002Z,15932.00
2023-04-22T11:51:25.984Z,16044.00
2023-04-22T11:52:25.956Z,16168.00
2023-04-22T11:53:25.965Z,16208.00
2023-04-22T11:54:25.955Z,16020.00
2023-04-22T11:55:25.931Z,15424.00
2023-04-22T11:56:25.953Z,14832.00
2023-04-22T11:57:25.916Z,14220.00
2023-04-22T11:58:25.888Z,13768.00
2023-04-22T11:59:25.944Z,13540.00
2023-04-22T12:00:25.881Z,13392.00
2023-04-22T12:01:25.889Z,13348.00
2023-04-22T12:02:26.030Z,13288.00
2023-04-22T12:03:26.052Z,13576.00
2023-04-22T12:04:25.929Z,14036.00
2023-04-22T12:05:26.104Z,13128.00
2023-04-22T12:06:25.820Z,11276.00
2023-04-22T12:07:25.815Z,9848.00
2023-04-22T12:08:25.816Z,8904.00
2023-04-22T12:09:25.866Z,8624.00
2023-04-22T12:10:25.776Z,8900.00
2023-04-22T12:11:25.756Z,9540.00
2023-04-22T12:12:25.759Z,10384.00
2023-04-22T12:13:25.744Z,11264.00
2023-04-22T12:14:25.991Z,11692.00
2023-04-22T12:15:25.701Z,11524.00
2023-04-22T12:16:25.747Z,11156.00
2023-04-22T12:17:25.764Z,10740.00
2023-04-22T12:18:25.696Z,10696.00
2023-04-22T12:19:25.662Z,11088.00
2023-04-22T12:20:25.659Z,11144.00
2023-04-22T12:21:25.651Z,10536.00
2023-04-22T12:22:25.661Z,10008.00
2023-04-22T12:23:25.633Z,9748.00
2023-04-22T12:24:25.615Z,9832.00
2023-04-22T12:25:25.612Z,10552.00
2023-04-22T12:26:26.912Z,11608.00